sensor_id;sensor_type;location;lat;lon;timestamp;P1;durP1;ratioP1;P2;durP2;ratioP2
5890;SDS011;2971;52.420;7.080;2023-03-05T00:01:13;13.63;;;3.80;;
5890;SDS011;2971;52.420;7.080;2023-03-05T00:03:48;10.33;;;3.53;;
5890;SDS011;2971;52.420;7.080;2023-03-05T00:06:13;12.07;;;3.53;;
5890;SDS011;2971;52.420;7.080;2023-03-05T00:08:41;12.50;;;3.60;;
5890;SDS011;2971;52.420;7.080;2023-03-05T00:11:07;9.47;;;3.47;;
5890;SDS011;2971;52.420;7.080;2023-03-05T00:13:34;6.70;;;3.10;;
5890;SDS011;2971;52.420;7.080;2023-03-05T00:16:07;12.90;;;3.57;;
5890;SDS011;2971;52.420;7.080;2023-03-05T00:18:34;10.87;;;3.60;;
5890;SDS011;2971;52.420;7.080;2023-03-05T00:21:00;13.73;;;3.93;;
5890;SDS011;2971;52.420;7.080;2023-03-05T00:23:26;11.80;;;3.63;;
5890;SDS011;2971;52.420;7.080;2023-03-05T00:25:51;10.47;;;3.73;;
5890;SDS011;2971;52.420;7.080;2023-03-05T00:28:17;10.20;;;3.77;;
5890;SDS011;2971;52.420;7.080;2023-03-05T00:30:42;10.53;;;3.63;;
5890;SDS011;2971;52.420;7.080;2023-03-05T00:33:08;9.57;;;3.70;;
5890;SDS011;2971;52.420;7.080;2023-03-05T00:35:42;13.00;;;3.47;;
5890;SDS011;2971;52.420;7.080;2023-03-05T00:38:09;9.90;;;3.60;;
5890;SDS011;2971;52.420;7.080;2023-03-05T00:40:38;8.63;;;3.30;;
5890;SDS011;2971;52.420;7.080;2023-03-05T00:43:04;13.27;;;3.53;;
5890;SDS011;2971;52.420;7.080;2023-03-05T00:45:30;11.70;;;4.10;;
5890;SDS011;2971;52.420;7.080;2023-03-05T00:47:56;9.50;;;3.50;;
5890;SDS011;2971;52.420;7.080;2023-03-05T00:50:21;11.33;;;3.77;;
5890;SDS011;2971;52.420;7.080;2023-03-05T00:52:47;15.50;;;3.80;;
5890;SDS011;2971;52.420;7.080;2023-03-05T00:55:12;8.43;;;3.50;;
5890;SDS011;2971;52.420;7.080;2023-03-05T00:57:37;11.80;;;3.37;;
5890;SDS011;2971;52.420;7.080;2023-03-05T01:00:03;9.37;;;4.00;;
5890;SDS011;2971;52.420;7.080;2023-03-05T01:02:30;10.90;;;3.37;;
5890;SDS011;2971;52.420;7.080;2023-03-05T01:04:55;11.50;;;3.67;;
5890;SDS011;2971;52.420;7.080;2023-03-05T01:07:21;7.77;;;3.43;;
5890;SDS011;2971;52.420;7.080;2023-03-05T01:09:46;11.33;;;3.40;;
5890;SDS011;2971;52.420;7.080;2023-03-05T01:12:11;10.57;;;3.63;;
5890;SDS011;2971;52.420;7.080;2023-03-05T01:14:37;9.87;;;3.57;;
5890;SDS011;2971;52.420;7.080;2023-03-05T01:17:02;13.10;;;3.77;;
5890;SDS011;2971;52.420;7.080;2023-03-05T01:19:28;11.10;;;3.37;;
5890;SDS011;2971;52.420;7.080;2023-03-05T01:21:54;13.47;;;3.50;;
5890;SDS011;2971;52.420;7.080;2023-03-05T01:24:19;11.10;;;3.13;;
5890;SDS011;2971;52.420;7.080;2023-03-05T01:26:45;9.80;;;3.60;;
5890;SDS011;2971;52.420;7.080;2023-03-05T01:29:11;8.83;;;2.93;;
5890;SDS011;2971;52.420;7.080;2023-03-05T01:31:36;12.77;;;3.57;;
5890;SDS011;2971;52.420;7.080;2023-03-05T01:34:02;9.03;;;3.27;;
5890;SDS011;2971;52.420;7.080;2023-03-05T01:36:27;11.80;;;3.30;;
5890;SDS011;2971;52.420;7.080;2023-03-05T01:38:53;8.80;;;3.03;;
5890;SDS011;2971;52.420;7.080;2023-03-05T01:41:18;9.97;;;3.10;;
5890;SDS011;2971;52.420;7.080;2023-03-05T01:43:45;8.97;;;3.07;;
5890;SDS011;2971;52.420;7.080;2023-03-05T01:48:37;9.77;;;3.47;;
5890;SDS011;2971;52.420;7.080;2023-03-05T01:51:03;9.30;;;3.23;;
5890;SDS011;2971;52.420;7.080;2023-03-05T01:53:29;8.10;;;3.10;;
5890;SDS011;2971;52.420;7.080;2023-03-05T01:55:55;10.13;;;3.20;;
5890;SDS011;2971;52.420;7.080;2023-03-05T01:58:21;10.17;;;3.43;;
5890;SDS011;2971;52.420;7.080;2023-03-05T02:00:46;10.83;;;3.40;;
5890;SDS011;2971;52.420;7.080;2023-03-05T02:03:13;9.90;;;3.90;;
5890;SDS011;2971;52.420;7.080;2023-03-05T02:05:40;8.63;;;3.70;;
5890;SDS011;2971;52.420;7.080;2023-03-05T02:08:08;9.57;;;3.50;;
5890;SDS011;2971;52.420;7.080;2023-03-05T02:10:39;9.37;;;3.77;;
5890;SDS011;2971;52.420;7.080;2023-03-05T02:13:11;14.63;;;3.70;;
5890;SDS011;2971;52.420;7.080;2023-03-05T02:15:38;12.13;;;3.73;;
5890;SDS011;2971;52.420;7.080;2023-03-05T02:18:05;11.63;;;3.80;;
5890;SDS011;2971;52.420;7.080;2023-03-05T02:20:42;13.40;;;4.47;;
5890;SDS011;2971;52.420;7.080;2023-03-05T02:23:15;13.53;;;4.27;;
5890;SDS011;2971;52.420;7.080;2023-03-05T02:25:42;11.70;;;4.27;;
5890;SDS011;2971;52.420;7.080;2023-03-05T02:30:40;10.47;;;4.03;;
5890;SDS011;2971;52.420;7.080;2023-03-05T02:33:06;11.77;;;4.07;;
5890;SDS011;2971;52.420;7.080;2023-03-05T02:35:31;10.93;;;4.23;;
5890;SDS011;2971;52.420;7.080;2023-03-05T02:37:57;10.97;;;3.97;;
5890;SDS011;2971;52.420;7.080;2023-03-05T02:40:23;13.07;;;4.33;;
5890;SDS011;2971;52.420;7.080;2023-03-05T02:42:49;11.47;;;4.57;;
5890;SDS011;2971;52.420;7.080;2023-03-05T02:45:14;12.53;;;3.80;;
5890;SDS011;2971;52.420;7.080;2023-03-05T02:47:40;10.60;;;3.93;;
5890;SDS011;2971;52.420;7.080;2023-03-05T02:50:05;9.80;;;3.90;;
5890;SDS011;2971;52.420;7.080;2023-03-05T02:52:31;10.90;;;3.77;;
5890;SDS011;2971;52.420;7.080;2023-03-05T02:54:57;10.40;;;3.83;;
5890;SDS011;2971;52.420;7.080;2023-03-05T02:57:22;10.60;;;4.00;;
5890;SDS011;2971;52.420;7.080;2023-03-05T02:59:48;9.80;;;4.23;;
5890;SDS011;2971;52.420;7.080;2023-03-05T03:02:13;12.60;;;4.33;;
5890;SDS011;2971;52.420;7.080;2023-03-05T03:04:38;9.93;;;4.60;;
5890;SDS011;2971;52.420;7.080;2023-03-05T03:07:04;13.77;;;4.47;;
5890;SDS011;2971;52.420;7.080;2023-03-05T03:09:29;10.73;;;4.27;;
5890;SDS011;2971;52.420;7.080;2023-03-05T03:11:55;12.90;;;4.07;;
5890;SDS011;2971;52.420;7.080;2023-03-05T03:14:20;14.77;;;4.20;;
5890;SDS011;2971;52.420;7.080;2023-03-05T03:16:46;15.00;;;4.50;;
5890;SDS011;2971;52.420;7.080;2023-03-05T03:19:11;11.53;;;4.27;;
5890;SDS011;2971;52.420;7.080;2023-03-05T03:21:37;11.03;;;3.90;;
5890;SDS011;2971;52.420;7.080;2023-03-05T03:24:02;13.37;;;4.20;;
5890;SDS011;2971;52.420;7.080;2023-03-05T03:26:28;11.30;;;4.67;;
5890;SDS011;2971;52.420;7.080;2023-03-05T03:28:54;11.00;;;4.07;;
5890;SDS011;2971;52.420;7.080;2023-03-05T03:31:19;13.13;;;4.53;;
5890;SDS011;2971;52.420;7.080;2023-03-05T03:33:45;13.37;;;4.53;;
5890;SDS011;2971;52.420;7.080;2023-03-05T03:36:10;12.40;;;4.47;;
5890;SDS011;2971;52.420;7.080;2023-03-05T03:38:36;9.93;;;4.30;;
5890;SDS011;2971;52.420;7.080;2023-03-05T03:41:02;9.37;;;4.13;;
5890;SDS011;2971;52.420;7.080;2023-03-05T03:43:29;12.20;;;4.30;;
5890;SDS011;2971;52.420;7.080;2023-03-05T03:45:55;11.97;;;3.87;;
5890;SDS011;2971;52.420;7.080;2023-03-05T03:48:20;9.33;;;3.97;;
5890;SDS011;2971;52.420;7.080;2023-03-05T03:50:46;13.00;;;3.77;;
5890;SDS011;2971;52.420;7.080;2023-03-05T03:53:11;9.83;;;3.90;;
5890;SDS011;2971;52.420;7.080;2023-03-05T03:55:38;8.10;;;3.43;;
5890;SDS011;2971;52.420;7.080;2023-03-05T03:58:04;12.17;;;4.13;;
5890;SDS011;2971;52.420;7.080;2023-03-05T04:00:29;12.13;;;3.53;;
5890;SDS011;2971;52.420;7.080;2023-03-05T04:02:55;12.23;;;3.50;;
5890;SDS011;2971;52.420;7.080;2023-03-05T04:05:20;9.27;;;3.40;;
5890;SDS011;2971;52.420;7.080;2023-03-05T04:07:46;7.97;;;3.23;;
5890;SDS011;2971;52.420;7.080;2023-03-05T04:10:11;7.03;;;3.37;;
5890;SDS011;2971;52.420;7.080;2023-03-05T04:12:36;7.93;;;2.97;;
5890;SDS011;2971;52.420;7.080;2023-03-05T04:15:02;8.00;;;2.60;;
5890;SDS011;2971;52.420;7.080;2023-03-05T04:17:29;7.17;;;3.57;;
5890;SDS011;2971;52.420;7.080;2023-03-05T04:19:55;9.33;;;3.10;;
5890;SDS011;2971;52.420;7.080;2023-03-05T04:22:20;10.17;;;3.57;;
5890;SDS011;2971;52.420;7.080;2023-03-05T04:24:45;11.50;;;3.50;;
5890;SDS011;2971;52.420;7.080;2023-03-05T04:27:11;10.07;;;3.20;;
5890;SDS011;2971;52.420;7.080;2023-03-05T04:29:36;7.80;;;3.13;;
5890;SDS011;2971;52.420;7.080;2023-03-05T04:32:02;8.10;;;3.10;;
5890;SDS011;2971;52.420;7.080;2023-03-05T04:34:27;7.87;;;2.80;;
5890;SDS011;2971;52.420;7.080;2023-03-05T04:36:53;8.00;;;3.00;;
5890;SDS011;2971;52.420;7.080;2023-03-05T04:39:18;5.60;;;2.90;;
5890;SDS011;2971;52.420;7.080;2023-03-05T04:41:45;7.00;;;2.70;;
5890;SDS011;2971;52.420;7.080;2023-03-05T04:44:11;9.10;;;2.97;;
5890;SDS011;2971;52.420;7.080;2023-03-05T04:46:37;6.43;;;2.90;;
5890;SDS011;2971;52.420;7.080;2023-03-05T04:49:02;9.23;;;2.77;;
5890;SDS011;2971;52.420;7.080;2023-03-05T04:51:27;7.00;;;2.70;;
5890;SDS011;2971;52.420;7.080;2023-03-05T04:53:53;5.43;;;2.67;;
5890;SDS011;2971;52.420;7.080;2023-03-05T04:56:18;6.33;;;2.67;;
5890;SDS011;2971;52.420;7.080;2023-03-05T04:58:44;6.27;;;2.70;;
5890;SDS011;2971;52.420;7.080;2023-03-05T05:01:09;5.83;;;2.50;;
5890;SDS011;2971;52.420;7.080;2023-03-05T05:03:34;7.73;;;3.10;;
5890;SDS011;2971;52.420;7.080;2023-03-05T05:06:00;7.03;;;2.90;;
5890;SDS011;2971;52.420;7.080;2023-03-05T05:08:26;9.20;;;3.23;;
5890;SDS011;2971;52.420;7.080;2023-03-05T05:10:56;8.33;;;3.30;;
5890;SDS011;2971;52.420;7.080;2023-03-05T05:13:26;7.03;;;2.60;;
5890;SDS011;2971;52.420;7.080;2023-03-05T05:15:52;8.30;;;3.20;;
5890;SDS011;2971;52.420;7.080;2023-03-05T05:18:17;6.93;;;2.70;;
5890;SDS011;2971;52.420;7.080;2023-03-05T05:20:43;7.93;;;3.43;;
5890;SDS011;2971;52.420;7.080;2023-03-05T05:23:08;9.10;;;3.00;;
5890;SDS011;2971;52.420;7.080;2023-03-05T05:25:33;8.10;;;3.20;;
5890;SDS011;2971;52.420;7.080;2023-03-05T05:27:59;9.97;;;3.50;;
5890;SDS011;2971;52.420;7.080;2023-03-05T05:30:24;6.53;;;3.20;;
5890;SDS011;2971;52.420;7.080;2023-03-05T05:32:50;6.93;;;2.87;;
5890;SDS011;2971;52.420;7.080;2023-03-05T05:35:16;8.93;;;2.77;;
5890;SDS011;2971;52.420;7.080;2023-03-05T05:37:41;5.67;;;3.10;;
5890;SDS011;2971;52.420;7.080;2023-03-05T05:40:07;5.80;;;2.70;;
5890;SDS011;2971;52.420;7.080;2023-03-05T05:42:33;7.87;;;3.13;;
5890;SDS011;2971;52.420;7.080;2023-03-05T05:44:59;5.93;;;2.77;;
5890;SDS011;2971;52.420;7.080;2023-03-05T05:47:26;6.60;;;3.13;;
5890;SDS011;2971;52.420;7.080;2023-03-05T05:49:52;9.17;;;3.60;;
5890;SDS011;2971;52.420;7.080;2023-03-05T05:52:18;5.83;;;2.90;;
5890;SDS011;2971;52.420;7.080;2023-03-05T05:54:43;8.30;;;3.40;;
5890;SDS011;2971;52.420;7.080;2023-03-05T05:57:08;7.10;;;3.17;;
5890;SDS011;2971;52.420;7.080;2023-03-05T05:59:34;6.93;;;2.87;;
5890;SDS011;2971;52.420;7.080;2023-03-05T06:01:59;6.10;;;2.80;;
5890;SDS011;2971;52.420;7.080;2023-03-05T06:04:25;6.83;;;3.00;;
5890;SDS011;2971;52.420;7.080;2023-03-05T06:06:50;8.53;;;3.47;;
5890;SDS011;2971;52.420;7.080;2023-03-05T06:09:15;7.63;;;3.13;;
5890;SDS011;2971;52.420;7.080;2023-03-05T06:11:41;7.60;;;3.30;;
5890;SDS011;2971;52.420;7.080;2023-03-05T06:14:06;6.93;;;2.93;;
5890;SDS011;2971;52.420;7.080;2023-03-05T06:16:32;8.20;;;3.30;;
5890;SDS011;2971;52.420;7.080;2023-03-05T06:18:58;8.00;;;3.77;;
5890;SDS011;2971;52.420;7.080;2023-03-05T06:21:28;6.67;;;3.33;;
5890;SDS011;2971;52.420;7.080;2023-03-05T06:23:53;7.20;;;3.67;;
5890;SDS011;2971;52.420;7.080;2023-03-05T06:26:20;5.80;;;3.50;;
5890;SDS011;2971;52.420;7.080;2023-03-05T06:28:46;7.10;;;3.50;;
5890;SDS011;2971;52.420;7.080;2023-03-05T06:31:13;9.47;;;3.57;;
5890;SDS011;2971;52.420;7.080;2023-03-05T06:33:40;4.90;;;3.23;;
5890;SDS011;2971;52.420;7.080;2023-03-05T06:36:06;7.70;;;3.33;;
5890;SDS011;2971;52.420;7.080;2023-03-05T06:38:34;6.63;;;3.27;;
5890;SDS011;2971;52.420;7.080;2023-03-05T06:41:00;7.47;;;3.60;;
5890;SDS011;2971;52.420;7.080;2023-03-05T06:43:26;8.83;;;3.83;;
5890;SDS011;2971;52.420;7.080;2023-03-05T06:46:01;7.30;;;3.70;;
5890;SDS011;2971;52.420;7.080;2023-03-05T06:48:28;8.70;;;3.90;;
5890;SDS011;2971;52.420;7.080;2023-03-05T06:50:53;7.17;;;3.60;;
5890;SDS011;2971;52.420;7.080;2023-03-05T06:53:19;10.97;;;3.83;;
5890;SDS011;2971;52.420;7.080;2023-03-05T06:55:44;7.43;;;4.00;;
5890;SDS011;2971;52.420;7.080;2023-03-05T06:58:09;8.20;;;4.07;;
5890;SDS011;2971;52.420;7.080;2023-03-05T07:00:35;6.27;;;3.80;;
5890;SDS011;2971;52.420;7.080;2023-03-05T07:03:00;8.67;;;4.10;;
5890;SDS011;2971;52.420;7.080;2023-03-05T07:05:26;6.50;;;4.27;;
5890;SDS011;2971;52.420;7.080;2023-03-05T07:07:51;9.10;;;4.33;;
5890;SDS011;2971;52.420;7.080;2023-03-05T07:10:17;8.40;;;4.23;;
5890;SDS011;2971;52.420;7.080;2023-03-05T07:12:42;7.37;;;4.00;;
5890;SDS011;2971;52.420;7.080;2023-03-05T07:15:08;8.60;;;4.10;;
5890;SDS011;2971;52.420;7.080;2023-03-05T07:17:33;7.63;;;4.30;;
5890;SDS011;2971;52.420;7.080;2023-03-05T07:19:59;8.40;;;4.50;;
5890;SDS011;2971;52.420;7.080;2023-03-05T07:22:24;9.07;;;4.70;;
5890;SDS011;2971;52.420;7.080;2023-03-05T07:24:49;7.20;;;4.20;;
5890;SDS011;2971;52.420;7.080;2023-03-05T07:27:15;8.17;;;4.37;;
5890;SDS011;2971;52.420;7.080;2023-03-05T07:29:40;8.30;;;4.27;;
5890;SDS011;2971;52.420;7.080;2023-03-05T07:32:06;6.90;;;4.60;;
5890;SDS011;2971;52.420;7.080;2023-03-05T07:34:31;7.83;;;4.97;;
5890;SDS011;2971;52.420;7.080;2023-03-05T07:36:56;7.63;;;5.03;;
5890;SDS011;2971;52.420;7.080;2023-03-05T07:39:22;7.60;;;4.97;;
5890;SDS011;2971;52.420;7.080;2023-03-05T07:41:47;7.97;;;4.53;;
5890;SDS011;2971;52.420;7.080;2023-03-05T07:44:14;7.43;;;4.60;;
5890;SDS011;2971;52.420;7.080;2023-03-05T07:46:41;7.83;;;4.50;;
5890;SDS011;2971;52.420;7.080;2023-03-05T07:49:06;9.10;;;4.40;;
5890;SDS011;2971;52.420;7.080;2023-03-05T07:51:32;7.87;;;4.40;;
5890;SDS011;2971;52.420;7.080;2023-03-05T07:53:58;6.30;;;4.30;;
5890;SDS011;2971;52.420;7.080;2023-03-05T07:56:25;6.53;;;4.00;;
5890;SDS011;2971;52.420;7.080;2023-03-05T07:58:56;8.03;;;3.80;;
5890;SDS011;2971;52.420;7.080;2023-03-05T08:01:22;7.67;;;4.03;;
5890;SDS011;2971;52.420;7.080;2023-03-05T08:03:47;8.20;;;3.60;;
5890;SDS011;2971;52.420;7.080;2023-03-05T08:06:13;8.20;;;4.10;;
5890;SDS011;2971;52.420;7.080;2023-03-05T08:08:38;6.80;;;3.70;;
5890;SDS011;2971;52.420;7.080;2023-03-05T08:11:04;8.07;;;3.73;;
5890;SDS011;2971;52.420;7.080;2023-03-05T08:13:31;8.07;;;3.20;;
5890;SDS011;2971;52.420;7.080;2023-03-05T08:15:56;8.63;;;3.40;;
5890;SDS011;2971;52.420;7.080;2023-03-05T08:18:22;8.80;;;3.50;;
5890;SDS011;2971;52.420;7.080;2023-03-05T08:20:47;8.23;;;3.53;;
5890;SDS011;2971;52.420;7.080;2023-03-05T08:23:12;7.87;;;3.50;;
5890;SDS011;2971;52.420;7.080;2023-03-05T08:25:38;6.77;;;3.70;;
5890;SDS011;2971;52.420;7.080;2023-03-05T08:28:03;6.17;;;3.23;;
5890;SDS011;2971;52.420;7.080;2023-03-05T08:30:29;7.43;;;3.20;;
5890;SDS011;2971;52.420;7.080;2023-03-05T08:32:57;5.60;;;2.80;;
5890;SDS011;2971;52.420;7.080;2023-03-05T08:35:22;6.37;;;2.53;;
5890;SDS011;2971;52.420;7.080;2023-03-05T08:37:48;7.87;;;3.20;;
5890;SDS011;2971;52.420;7.080;2023-03-05T08:40:13;6.47;;;3.10;;
5890;SDS011;2971;52.420;7.080;2023-03-05T08:42:41;9.03;;;2.93;;
5890;SDS011;2971;52.420;7.080;2023-03-05T08:45:08;7.23;;;2.87;;
5890;SDS011;2971;52.420;7.080;2023-03-05T08:47:34;7.57;;;2.80;;
5890;SDS011;2971;52.420;7.080;2023-03-05T08:49:59;8.17;;;3.03;;
5890;SDS011;2971;52.420;7.080;2023-03-05T08:52:24;5.47;;;3.13;;
5890;SDS011;2971;52.420;7.080;2023-03-05T08:54:51;8.07;;;2.87;;
5890;SDS011;2971;52.420;7.080;2023-03-05T08:57:16;9.57;;;2.67;;
5890;SDS011;2971;52.420;7.080;2023-03-05T08:59:42;4.97;;;1.90;;
5890;SDS011;2971;52.420;7.080;2023-03-05T09:02:09;5.80;;;2.30;;
5890;SDS011;2971;52.420;7.080;2023-03-05T09:04:36;5.63;;;2.40;;
5890;SDS011;2971;52.420;7.080;2023-03-05T09:07:01;4.97;;;2.20;;
5890;SDS011;2971;52.420;7.080;2023-03-05T09:09:27;6.13;;;2.10;;
5890;SDS011;2971;52.420;7.080;2023-03-05T09:11:54;5.97;;;2.03;;
5890;SDS011;2971;52.420;7.080;2023-03-05T09:14:21;5.70;;;2.37;;
5890;SDS011;2971;52.420;7.080;2023-03-05T09:16:46;5.13;;;2.10;;
5890;SDS011;2971;52.420;7.080;2023-03-05T09:19:12;7.10;;;1.97;;
5890;SDS011;2971;52.420;7.080;2023-03-05T09:21:39;6.47;;;2.30;;
5890;SDS011;2971;52.420;7.080;2023-03-05T09:24:04;7.00;;;2.47;;
5890;SDS011;2971;52.420;7.080;2023-03-05T09:26:30;5.93;;;2.10;;
5890;SDS011;2971;52.420;7.080;2023-03-05T09:28:55;6.27;;;2.30;;
5890;SDS011;2971;52.420;7.080;2023-03-05T09:31:21;7.97;;;2.40;;
5890;SDS011;2971;52.420;7.080;2023-03-05T09:33:47;3.73;;;1.77;;
5890;SDS011;2971;52.420;7.080;2023-03-05T09:38:46;5.40;;;2.07;;
5890;SDS011;2971;52.420;7.080;2023-03-05T09:44:05;6.77;;;2.00;;
5890;SDS011;2971;52.420;7.080;2023-03-05T09:46:47;6.53;;;2.00;;
5890;SDS011;2971;52.420;7.080;2023-03-05T09:49:22;5.30;;;2.60;;
5890;SDS011;2971;52.420;7.080;2023-03-05T09:52:18;7.07;;;2.07;;
5890;SDS011;2971;52.420;7.080;2023-03-05T09:54:47;7.03;;;2.83;;
5890;SDS011;2971;52.420;7.080;2023-03-05T09:57:18;6.70;;;2.40;;
5890;SDS011;2971;52.420;7.080;2023-03-05T09:59:47;4.60;;;2.20;;
5890;SDS011;2971;52.420;7.080;2023-03-05T10:02:16;8.13;;;2.63;;
5890;SDS011;2971;52.420;7.080;2023-03-05T10:04:56;6.57;;;2.23;;
5890;SDS011;2971;52.420;7.080;2023-03-05T10:07:26;6.07;;;1.90;;
5890;SDS011;2971;52.420;7.080;2023-03-05T10:12:51;8.33;;;2.50;;
5890;SDS011;2971;52.420;7.080;2023-03-05T10:15:30;6.37;;;2.10;;
5890;SDS011;2971;52.420;7.080;2023-03-05T10:23:47;5.17;;;1.83;;
5890;SDS011;2971;52.420;7.080;2023-03-05T10:37:19;6.90;;;2.00;;
5890;SDS011;2971;52.420;7.080;2023-03-05T10:40:05;5.63;;;1.80;;
5890;SDS011;2971;52.420;7.080;2023-03-05T10:45:31;4.37;;;1.70;;
5890;SDS011;2971;52.420;7.080;2023-03-05T10:50:37;4.80;;;2.03;;
5890;SDS011;2971;52.420;7.080;2023-03-05T10:55:44;6.77;;;2.30;;
5890;SDS011;2971;52.420;7.080;2023-03-05T10:58:13;6.13;;;2.33;;
5890;SDS011;2971;52.420;7.080;2023-03-05T11:00:40;6.43;;;1.90;;
5890;SDS011;2971;52.420;7.080;2023-03-05T11:03:09;6.97;;;2.37;;
5890;SDS011;2971;52.420;7.080;2023-03-05T11:10:47;4.53;;;1.97;;
5890;SDS011;2971;52.420;7.080;2023-03-05T11:13:27;5.53;;;1.93;;
5890;SDS011;2971;52.420;7.080;2023-03-05T11:16:00;6.43;;;2.10;;
5890;SDS011;2971;52.420;7.080;2023-03-05T11:18:30;6.93;;;2.10;;
5890;SDS011;2971;52.420;7.080;2023-03-05T11:21:41;7.47;;;2.10;;
5890;SDS011;2971;52.420;7.080;2023-03-05T11:26:49;4.33;;;1.80;;
5890;SDS011;2971;52.420;7.080;2023-03-05T11:29:20;5.93;;;2.00;;
5890;SDS011;2971;52.420;7.080;2023-03-05T11:31:47;5.37;;;2.50;;
5890;SDS011;2971;52.420;7.080;2023-03-05T11:39:22;5.30;;;1.60;;
5890;SDS011;2971;52.420;7.080;2023-03-05T11:41:56;6.37;;;2.20;;
5890;SDS011;2971;52.420;7.080;2023-03-05T11:44:25;3.33;;;1.40;;
5890;SDS011;2971;52.420;7.080;2023-03-05T11:46:52;6.67;;;1.90;;
5890;SDS011;2971;52.420;7.080;2023-03-05T11:49:22;4.03;;;1.40;;
5890;SDS011;2971;52.420;7.080;2023-03-05T11:54:30;6.53;;;2.00;;
5890;SDS011;2971;52.420;7.080;2023-03-05T11:57:01;3.03;;;1.40;;
5890;SDS011;2971;52.420;7.080;2023-03-05T11:59:27;7.17;;;1.83;;
5890;SDS011;2971;52.420;7.080;2023-03-05T12:01:55;5.93;;;1.80;;
5890;SDS011;2971;52.420;7.080;2023-03-05T12:04:21;5.57;;;1.80;;
5890;SDS011;2971;52.420;7.080;2023-03-05T12:06:48;4.07;;;1.70;;
5890;SDS011;2971;52.420;7.080;2023-03-05T12:09:39;4.53;;;1.87;;
5890;SDS011;2971;52.420;7.080;2023-03-05T12:14:49;4.83;;;1.40;;
5890;SDS011;2971;52.420;7.080;2023-03-05T12:22:37;2.73;;;1.67;;
5890;SDS011;2971;52.420;7.080;2023-03-05T12:27:58;4.87;;;1.60;;
5890;SDS011;2971;52.420;7.080;2023-03-05T12:32:59;3.87;;;1.57;;
5890;SDS011;2971;52.420;7.080;2023-03-05T12:35:29;5.27;;;1.67;;
5890;SDS011;2971;52.420;7.080;2023-03-05T12:38:18;3.73;;;1.40;;
5890;SDS011;2971;52.420;7.080;2023-03-05T12:41:17;5.43;;;1.77;;
5890;SDS011;2971;52.420;7.080;2023-03-05T12:46:32;4.30;;;1.60;;
5890;SDS011;2971;52.420;7.080;2023-03-05T12:51:43;4.23;;;1.47;;
5890;SDS011;2971;52.420;7.080;2023-03-05T12:56:51;3.97;;;1.30;;
5890;SDS011;2971;52.420;7.080;2023-03-05T12:59:17;4.37;;;1.40;;
5890;SDS011;2971;52.420;7.080;2023-03-05T13:01:46;5.90;;;1.83;;
5890;SDS011;2971;52.420;7.080;2023-03-05T13:04:21;4.47;;;1.70;;
5890;SDS011;2971;52.420;7.080;2023-03-05T13:06:57;6.00;;;1.83;;
5890;SDS011;2971;52.420;7.080;2023-03-05T13:09:28;4.33;;;1.80;;
5890;SDS011;2971;52.420;7.080;2023-03-05T13:11:55;4.27;;;1.60;;
5890;SDS011;2971;52.420;7.080;2023-03-05T13:17:00;5.93;;;1.90;;
5890;SDS011;2971;52.420;7.080;2023-03-05T13:19:26;7.50;;;2.20;;
5890;SDS011;2971;52.420;7.080;2023-03-05T13:21:56;6.03;;;1.67;;
5890;SDS011;2971;52.420;7.080;2023-03-05T13:24:26;5.37;;;1.50;;
5890;SDS011;2971;52.420;7.080;2023-03-05T13:26:53;3.57;;;1.67;;
5890;SDS011;2971;52.420;7.080;2023-03-05T13:29:19;3.67;;;1.50;;
5890;SDS011;2971;52.420;7.080;2023-03-05T13:34:19;5.83;;;1.80;;
5890;SDS011;2971;52.420;7.080;2023-03-05T13:36:47;4.77;;;1.80;;
5890;SDS011;2971;52.420;7.080;2023-03-05T13:39:17;3.40;;;1.90;;
5890;SDS011;2971;52.420;7.080;2023-03-05T13:41:54;6.57;;;1.97;;
5890;SDS011;2971;52.420;7.080;2023-03-05T13:44:23;3.97;;;1.50;;
5890;SDS011;2971;52.420;7.080;2023-03-05T13:46:49;4.33;;;1.43;;
5890;SDS011;2971;52.420;7.080;2023-03-05T13:51:46;3.63;;;1.57;;
5890;SDS011;2971;52.420;7.080;2023-03-05T13:54:14;3.93;;;2.20;;
5890;SDS011;2971;52.420;7.080;2023-03-05T13:56:48;5.50;;;2.27;;
5890;SDS011;2971;52.420;7.080;2023-03-05T13:59:18;4.77;;;1.60;;
5890;SDS011;2971;52.420;7.080;2023-03-05T14:01:46;4.60;;;1.77;;
5890;SDS011;2971;52.420;7.080;2023-03-05T14:06:41;2.33;;;1.70;;
5890;SDS011;2971;52.420;7.080;2023-03-05T14:11:59;4.87;;;1.60;;
5890;SDS011;2971;52.420;7.080;2023-03-05T14:14:27;3.43;;;1.50;;
5890;SDS011;2971;52.420;7.080;2023-03-05T14:16:54;5.73;;;1.40;;
5890;SDS011;2971;52.420;7.080;2023-03-05T14:19:35;3.27;;;1.23;;
5890;SDS011;2971;52.420;7.080;2023-03-05T14:22:02;2.50;;;1.40;;
5890;SDS011;2971;52.420;7.080;2023-03-05T14:24:28;4.47;;;1.53;;
5890;SDS011;2971;52.420;7.080;2023-03-05T14:27:04;4.67;;;1.53;;
5890;SDS011;2971;52.420;7.080;2023-03-05T14:29:32;4.00;;;1.40;;
5890;SDS011;2971;52.420;7.080;2023-03-05T14:31:59;3.47;;;1.60;;
5890;SDS011;2971;52.420;7.080;2023-03-05T14:34:30;3.10;;;1.70;;
5890;SDS011;2971;52.420;7.080;2023-03-05T14:36:59;2.13;;;1.30;;
5890;SDS011;2971;52.420;7.080;2023-03-05T14:41:52;3.53;;;1.40;;
5890;SDS011;2971;52.420;7.080;2023-03-05T14:44:18;2.53;;;1.30;;
5890;SDS011;2971;52.420;7.080;2023-03-05T14:46:47;5.97;;;1.60;;
5890;SDS011;2971;52.420;7.080;2023-03-05T14:49:13;6.30;;;2.00;;
5890;SDS011;2971;52.420;7.080;2023-03-05T14:51:40;2.83;;;1.77;;
5890;SDS011;2971;52.420;7.080;2023-03-05T14:54:18;5.90;;;1.80;;
5890;SDS011;2971;52.420;7.080;2023-03-05T14:56:45;4.67;;;1.77;;
5890;SDS011;2971;52.420;7.080;2023-03-05T14:59:11;3.87;;;1.60;;
5890;SDS011;2971;52.420;7.080;2023-03-05T15:01:37;3.90;;;1.83;;
5890;SDS011;2971;52.420;7.080;2023-03-05T15:04:02;3.60;;;1.60;;
5890;SDS011;2971;52.420;7.080;2023-03-05T15:06:35;4.23;;;1.60;;
5890;SDS011;2971;52.420;7.080;2023-03-05T15:09:02;3.87;;;1.80;;
5890;SDS011;2971;52.420;7.080;2023-03-05T15:11:28;4.67;;;1.97;;
5890;SDS011;2971;52.420;7.080;2023-03-05T15:13:54;5.37;;;2.10;;
5890;SDS011;2971;52.420;7.080;2023-03-05T15:16:19;4.80;;;2.10;;
5890;SDS011;2971;52.420;7.080;2023-03-05T15:18:46;6.03;;;2.70;;
5890;SDS011;2971;52.420;7.080;2023-03-05T15:21:11;5.20;;;2.40;;
5890;SDS011;2971;52.420;7.080;2023-03-05T15:23:36;5.13;;;2.30;;
5890;SDS011;2971;52.420;7.080;2023-03-05T15:26:06;4.23;;;1.90;;
5890;SDS011;2971;52.420;7.080;2023-03-05T15:28:33;5.50;;;2.00;;
5890;SDS011;2971;52.420;7.080;2023-03-05T15:31:00;4.50;;;1.93;;
5890;SDS011;2971;52.420;7.080;2023-03-05T15:33:25;4.90;;;1.87;;
5890;SDS011;2971;52.420;7.080;2023-03-05T15:35:52;4.70;;;2.00;;
5890;SDS011;2971;52.420;7.080;2023-03-05T15:38:17;5.50;;;2.00;;
5890;SDS011;2971;52.420;7.080;2023-03-05T15:40:43;4.87;;;2.10;;
5890;SDS011;2971;52.420;7.080;2023-03-05T15:43:09;4.17;;;2.10;;
5890;SDS011;2971;52.420;7.080;2023-03-05T15:45:34;4.57;;;2.10;;
5890;SDS011;2971;52.420;7.080;2023-03-05T15:48:00;3.33;;;1.80;;
5890;SDS011;2971;52.420;7.080;2023-03-05T15:50:25;3.23;;;1.53;;
5890;SDS011;2971;52.420;7.080;2023-03-05T15:52:51;4.00;;;1.60;;
5890;SDS011;2971;52.420;7.080;2023-03-05T15:55:16;3.17;;;1.60;;
5890;SDS011;2971;52.420;7.080;2023-03-05T15:57:45;3.90;;;2.00;;
5890;SDS011;2971;52.420;7.080;2023-03-05T16:00:13;3.33;;;2.00;;
5890;SDS011;2971;52.420;7.080;2023-03-05T16:02:39;4.50;;;2.00;;
5890;SDS011;2971;52.420;7.080;2023-03-05T16:05:05;4.70;;;2.20;;
5890;SDS011;2971;52.420;7.080;2023-03-05T16:07:32;3.83;;;1.80;;
5890;SDS011;2971;52.420;7.080;2023-03-05T16:09:58;6.50;;;2.17;;
5890;SDS011;2971;52.420;7.080;2023-03-05T16:12:25;4.87;;;2.10;;
5890;SDS011;2971;52.420;7.080;2023-03-05T16:14:52;4.60;;;2.13;;
5890;SDS011;2971;52.420;7.080;2023-03-05T16:17:18;6.00;;;2.10;;
5890;SDS011;2971;52.420;7.080;2023-03-05T16:19:45;4.83;;;2.47;;
5890;SDS011;2971;52.420;7.080;2023-03-05T16:22:13;4.80;;;2.13;;
5890;SDS011;2971;52.420;7.080;2023-03-05T16:24:38;5.53;;;2.20;;
5890;SDS011;2971;52.420;7.080;2023-03-05T16:27:04;5.23;;;2.23;;
5890;SDS011;2971;52.420;7.080;2023-03-05T16:29:30;4.67;;;1.97;;
5890;SDS011;2971;52.420;7.080;2023-03-05T16:32:01;5.13;;;2.17;;
5890;SDS011;2971;52.420;7.080;2023-03-05T16:34:28;4.70;;;2.10;;
5890;SDS011;2971;52.420;7.080;2023-03-05T16:36:53;5.60;;;2.90;;
5890;SDS011;2971;52.420;7.080;2023-03-05T16:39:19;6.37;;;2.80;;
5890;SDS011;2971;52.420;7.080;2023-03-05T16:41:45;5.20;;;2.60;;
5890;SDS011;2971;52.420;7.080;2023-03-05T16:44:10;6.30;;;2.50;;